createdAt,value
2022-08-17T00:02:25.566Z,74.84
2022-08-17T00:05:17.463Z,74.48
2022-08-17T00:08:07.403Z,74.16
2022-08-17T00:10:57.834Z,74.01
2022-08-17T00:13:57.781Z,73.89
2022-08-17T00:16:56.839Z,73.40
2022-08-17T00:19:47.339Z,73.43
2022-08-17T00:22:37.976Z,72.99
2022-08-17T00:25:28.170Z,73.17
2022-08-17T00:28:19.467Z,72.61
2022-08-17T00:31:11.814Z,72.87
2022-08-17T00:34:01.708Z,72.15
2022-08-17T00:36:52.617Z,72.37
2022-08-17T00:39:44.323Z,72.23
2022-08-17T00:42:34.043Z,71.89
2022-08-17T00:45:24.692Z,71.91
2022-08-17T00:48:29.088Z,71.63
2022-08-17T00:51:33.517Z,71.75
2022-08-17T00:54:30.056Z,71.46
2022-08-17T00:57:29.678Z,71.55
2022-08-17T01:00:33.189Z,70.73
2022-08-17T01:03:28.673Z,70.12
2022-08-17T01:06:20.283Z,70.05
2022-08-17T01:09:11.164Z,71.11
2022-08-17T01:12:11.885Z,71.50
2022-08-17T01:15:01.909Z,71.62
2022-08-17T01:17:51.812Z,71.31
2022-08-17T01:20:50.143Z,70.48
2022-08-17T01:23:43.474Z,69.67
2022-08-17T01:26:34.869Z,70.29
2022-08-17T01:29:25.901Z,69.07
2022-08-17T01:32:17.323Z,67.53
2022-08-17T01:35:08.891Z,66.07
2022-08-17T01:37:58.560Z,64.67
2022-08-17T01:40:57.342Z,64.43
2022-08-17T01:43:57.703Z,64.02
2022-08-17T01:46:47.072Z,64.21
2022-08-17T01:49:38.336Z,64.25
2022-08-17T01:52:28.414Z,63.40
2022-08-17T01:55:25.866Z,63.80
2022-08-17T01:58:20.408Z,63.17
2022-08-17T02:01:11.544Z,63.40
2022-08-17T02:04:03.453Z,63.20
2022-08-17T02:06:55.251Z,62.87
2022-08-17T02:09:45.811Z,62.60
2022-08-17T02:12:44.153Z,62.33
2022-08-17T02:15:36.024Z,62.17
2022-08-17T02:18:27.775Z,62.68
2022-08-17T02:21:17.767Z,62.85
2022-08-17T02:24:12.404Z,63.13
2022-08-17T02:27:03.294Z,63.35
2022-08-17T02:29:53.275Z,64.00
2022-08-17T02:32:43.525Z,64.16
2022-08-17T02:35:33.841Z,65.07
2022-08-17T02:44:39.975Z,65.48
2022-08-17T02:47:31.268Z,64.91
2022-08-17T02:50:27.503Z,64.52
2022-08-17T02:53:18.330Z,64.05
2022-08-17T02:56:08.724Z,63.42
2022-08-17T02:58:58.570Z,62.34
2022-08-17T03:01:52.446Z,62.58
2022-08-17T03:04:45.915Z,62.39
2022-08-17T03:07:36.409Z,62.25
2022-08-17T03:10:27.329Z,62.64
2022-08-17T03:13:18.098Z,62.34
2022-08-17T03:16:08.657Z,61.76
2022-08-17T03:18:59.222Z,61.52
2022-08-17T03:21:55.135Z,60.96
2022-08-17T03:24:45.485Z,61.11
2022-08-17T03:27:35.338Z,61.03
2022-08-17T03:30:30.925Z,60.89
2022-08-17T03:33:22.080Z,60.90
2022-08-17T03:36:11.831Z,61.11
2022-08-17T03:39:01.822Z,61.73
2022-08-17T03:41:51.872Z,61.19
2022-08-17T03:44:42.834Z,60.98
2022-08-17T03:47:51.577Z,60.52
2022-08-17T03:51:00.517Z,61.03
2022-08-17T03:54:15.060Z,61.37
2022-08-17T03:57:08.217Z,60.90
2022-08-17T03:59:58.574Z,61.27
2022-08-17T04:02:48.472Z,61.04
2022-08-17T04:05:39.289Z,60.82
2022-08-17T04:08:30.870Z,61.32
2022-08-17T04:11:21.157Z,61.60
2022-08-17T04:14:12.359Z,62.05
2022-08-17T04:17:03.464Z,61.96
2022-08-17T04:19:54.914Z,62.55
2022-08-17T04:23:08.469Z,63.32
2022-08-17T04:25:57.775Z,63.34
2022-08-17T04:28:48.118Z,63.03
2022-08-17T04:31:38.995Z,63.35
2022-08-17T04:34:28.761Z,62.92
2022-08-17T04:37:18.291Z,63.15
2022-08-17T04:40:27.485Z,63.43
2022-08-17T04:43:20.521Z,62.68
2022-08-17T04:46:13.520Z,62.09
2022-08-17T04:49:07.446Z,61.80
2022-08-17T04:52:00.112Z,61.63
2022-08-17T04:54:54.068Z,60.96
2022-08-17T04:57:45.205Z,59.89
2022-08-17T05:00:35.592Z,60.09
2022-08-17T05:03:29.005Z,60.76
2022-08-17T05:06:19.570Z,60.48
2022-08-17T05:09:09.333Z,60.32
2022-08-17T05:12:06.387Z,59.95
2022-08-17T05:14:58.180Z,59.50
2022-08-17T05:17:48.005Z,59.12
2022-08-17T05:20:40.213Z,58.69
2022-08-17T05:23:42.025Z,58.45
2022-08-17T05:26:34.018Z,58.56
2022-08-17T05:29:35.174Z,58.73
2022-08-17T05:32:38.880Z,57.84
2022-08-17T05:35:33.965Z,57.75
2022-08-17T05:38:25.878Z,57.56
2022-08-17T05:41:16.019Z,58.17
2022-08-17T05:44:06.031Z,58.28
2022-08-17T05:46:57.406Z,57.80
2022-08-17T05:49:49.033Z,57.86
2022-08-17T05:52:52.684Z,58.21
2022-08-17T05:55:48.004Z,57.81
2022-08-17T05:58:44.353Z,57.61
2022-08-17T06:01:46.449Z,57.70
2022-08-17T06:04:57.850Z,57.36
2022-08-17T06:08:02.148Z,57.84
2022-08-17T06:10:55.252Z,57.53
2022-08-17T06:13:50.385Z,59.24
2022-08-17T06:16:43.390Z,60.73
2022-08-17T06:19:49.521Z,61.58
2022-08-17T06:22:48.466Z,62.28
2022-08-17T06:25:50.663Z,62.07
2022-08-17T06:28:49.510Z,62.67
2022-08-17T06:31:41.413Z,63.54
2022-08-17T06:34:31.405Z,63.99
2022-08-17T06:37:40.551Z,64.53
2022-08-17T06:40:50.122Z,64.79
2022-08-17T06:43:51.164Z,64.73
2022-08-17T06:46:49.966Z,64.77
2022-08-17T06:49:55.650Z,64.29
2022-08-17T06:53:24.907Z,63.88
2022-08-17T06:56:53.962Z,63.75
2022-08-17T07:00:03.689Z,63.40
2022-08-17T07:03:22.431Z,63.24
2022-08-17T07:06:17.569Z,63.19
2022-08-17T07:09:20.019Z,63.38
2022-08-17T07:12:26.696Z,63.74
2022-08-17T07:15:21.632Z,63.53
2022-08-17T07:18:14.408Z,63.68
2022-08-17T07:21:17.051Z,63.37
2022-08-17T07:24:44.548Z,63.99
2022-08-17T07:27:46.783Z,63.67
2022-08-17T07:31:03.496Z,63.31
2022-08-17T07:34:08.174Z,63.25
2022-08-17T07:37:07.751Z,63.54
2022-08-17T07:39:59.690Z,63.44
2022-08-17T07:43:23.217Z,63.69
2022-08-17T07:46:43.275Z,64.05
2022-08-17T07:49:33.401Z,64.28
2022-08-17T07:52:50.313Z,65.19
2022-08-17T07:55:43.228Z,65.27
2022-08-17T07:58:34.427Z,65.65
2022-08-17T08:01:24.175Z,64.83
2022-08-17T08:08:06.808Z,62.60
2022-08-17T08:11:06.933Z,63.21
2022-08-17T08:13:56.150Z,63.08
2022-08-17T08:17:03.721Z,63.22
2022-08-17T08:19:56.613Z,62.92
2022-08-17T08:23:13.405Z,63.58
2022-08-17T08:26:21.819Z,63.53
2022-08-17T08:29:33.356Z,64.26
2022-08-17T08:32:57.268Z,65.87
2022-08-17T08:35:55.833Z,67.08
2022-08-17T08:39:06.427Z,67.94
2022-08-17T08:42:10.573Z,70.20
2022-08-17T08:45:22.639Z,71.14
2022-08-17T08:48:53.874Z,71.81
2022-08-17T08:51:51.661Z,71.20
2022-08-17T08:55:14.834Z,71.41
2022-08-17T08:58:42.032Z,70.98
2022-08-17T09:01:35.096Z,70.25
2022-08-17T09:05:10.695Z,69.90
2022-08-17T09:08:12.469Z,69.84
2022-08-17T09:11:15.845Z,69.13
2022-08-17T09:14:21.752Z,69.31
2022-08-17T09:17:23.420Z,68.55
2022-08-17T09:20:49.935Z,68.26
2022-08-17T09:24:06.498Z,67.78
2022-08-17T09:27:07.677Z,67.88
2022-08-17T09:30:12.083Z,67.64
2022-08-17T09:33:07.058Z,67.72
2022-08-17T09:36:05.097Z,67.84
2022-08-17T09:38:57.950Z,67.45
2022-08-17T09:41:51.053Z,66.80
2022-08-17T09:45:03.532Z,66.55
2022-08-17T09:48:06.337Z,66.61
2022-08-17T09:51:05.174Z,67.27
2022-08-17T09:54:05.184Z,67.03
2022-08-17T09:57:29.258Z,67.28
2022-08-17T10:00:30.552Z,67.55
2022-08-17T10:03:29.869Z,67.22
2022-08-17T10:06:26.896Z,67.35
2022-08-17T10:09:43.139Z,66.90
2022-08-17T10:12:46.379Z,67.26
2022-08-17T10:15:45.342Z,67.27
2022-08-17T10:18:48.177Z,67.16
2022-08-17T10:22:01.351Z,67.38
2022-08-17T10:25:23.263Z,67.47
2022-08-17T10:28:25.877Z,67.45
2022-08-17T10:31:36.448Z,67.69
2022-08-17T10:35:03.214Z,67.93
2022-08-17T10:38:24.723Z,68.15
2022-08-17T10:41:26.506Z,68.38
2022-08-17T10:44:40.391Z,68.34
2022-08-17T10:48:05.766Z,67.90
2022-08-17T10:50:59.068Z,67.23
2022-08-17T10:53:49.799Z,67.09
2022-08-17T10:56:51.965Z,66.69
2022-08-17T10:59:43.287Z,66.78
2022-08-17T11:02:51.612Z,66.69
2022-08-17T11:06:00.196Z,66.61
2022-08-17T11:09:09.228Z,66.38
2022-08-17T11:12:17.512Z,66.85
2022-08-17T11:15:33.996Z,66.87
2022-08-17T11:18:58.759Z,67.07
2022-08-17T11:22:03.649Z,67.54
2022-08-17T11:24:55.078Z,67.53
2022-08-17T11:27:46.809Z,68.13
2022-08-17T11:30:50.706Z,67.27
2022-08-17T11:33:46.340Z,67.33
2022-08-17T11:36:51.855Z,67.28
2022-08-17T11:39:42.267Z,66.99
2022-08-17T11:42:44.934Z,67.55
2022-08-17T11:45:56.748Z,67.83
2022-08-17T11:49:23.417Z,67.41
2022-08-17T11:52:41.642Z,67.78
2022-08-17T11:55:43.145Z,67.69
2022-08-17T11:58:39.335Z,67.23
2022-08-17T12:01:58.081Z,67.87
2022-08-17T12:05:09.725Z,67.74
2022-08-17T12:08:08.386Z,67.25
2022-08-17T12:12:04.589Z,67.51
2022-08-17T12:15:08.032Z,67.56
2022-08-17T12:17:57.672Z,67.50
2022-08-17T12:20:56.620Z,67.88
2022-08-17T12:24:11.829Z,67.42
2022-08-17T12:27:03.906Z,67.17
2022-08-17T12:29:56.075Z,67.26
2022-08-17T12:32:49.074Z,67.45
2022-08-17T12:35:40.365Z,67.48
2022-08-17T12:38:34.019Z,67.54
2022-08-17T12:41:42.274Z,67.53
2022-08-17T12:44:36.339Z,67.52
2022-08-17T12:47:39.052Z,67.51
2022-08-17T12:50:30.278Z,67.33
2022-08-17T12:53:31.563Z,67.84
2022-08-17T12:56:21.886Z,67.98
2022-08-17T12:59:12.791Z,68.09
2022-08-17T13:02:04.270Z,69.19
2022-08-17T13:04:53.419Z,69.47
2022-08-17T13:07:44.947Z,70.31
2022-08-17T13:10:37.221Z,71.09
2022-08-17T13:13:37.095Z,71.28
2022-08-17T13:16:32.933Z,71.74
2022-08-17T13:19:40.016Z,71.81
2022-08-17T13:22:33.788Z,72.30
2022-08-17T13:25:23.796Z,72.88
2022-08-17T13:28:35.761Z,72.89
2022-08-17T13:31:52.806Z,72.57
2022-08-17T13:35:13.082Z,72.48
2022-08-17T13:38:03.165Z,73.24
2022-08-17T13:40:54.889Z,73.29
2022-08-17T13:43:52.007Z,73.10
2022-08-17T13:46:41.309Z,73.49
2022-08-17T13:49:41.510Z,73.51
2022-08-17T13:52:42.754Z,73.36
2022-08-17T13:55:34.358Z,72.97
2022-08-17T13:58:35.916Z,72.99
2022-08-17T14:01:58.253Z,72.83
2022-08-17T14:04:49.417Z,72.69
2022-08-17T14:07:40.881Z,72.85
2022-08-17T14:10:32.323Z,73.14
2022-08-17T14:13:23.694Z,73.26
2022-08-17T14:16:13.570Z,73.24
2022-08-17T14:19:03.633Z,73.17
2022-08-17T14:22:00.275Z,73.04
2022-08-17T14:24:50.880Z,72.50
2022-08-17T14:27:53.635Z,72.48
2022-08-17T14:30:44.221Z,72.31
2022-08-17T14:33:36.397Z,72.56
2022-08-17T14:36:26.435Z,72.36
2022-08-17T14:39:17.433Z,72.57
2022-08-17T14:42:09.897Z,72.90
2022-08-17T14:45:07.570Z,72.84
2022-08-17T14:48:18.213Z,72.81
2022-08-17T14:51:08.395Z,72.81
2022-08-17T14:53:58.733Z,72.74
2022-08-17T14:56:49.452Z,72.61
2022-08-17T14:59:54.274Z,72.75
2022-08-17T15:02:47.599Z,72.80
2022-08-17T15:05:39.189Z,72.92
2022-08-17T15:08:30.639Z,73.30
2022-08-17T15:11:20.554Z,73.35
2022-08-17T15:14:10.213Z,73.09
2022-08-17T15:16:59.489Z,73.47
2022-08-17T15:19:49.041Z,73.23
2022-08-17T15:22:39.929Z,73.91
2022-08-17T15:25:33.170Z,74.07
2022-08-17T15:28:25.109Z,74.46
2022-08-17T15:31:15.172Z,74.34
2022-08-17T15:34:07.933Z,74.53
2022-08-17T15:36:58.321Z,74.36
2022-08-17T15:39:47.725Z,74.79
2022-08-17T15:42:37.972Z,75.08
2022-08-17T15:45:28.390Z,75.09
2022-08-17T15:48:19.938Z,75.36
2022-08-17T15:51:17.974Z,76.04
2022-08-17T15:54:19.057Z,75.66
2022-08-17T15:57:11.735Z,75.99
2022-08-17T16:00:01.789Z,75.70
2022-08-17T16:03:45.128Z,75.72
2022-08-17T16:06:11.472Z,75.88
2022-08-17T16:09:01.864Z,76.10
2022-08-17T16:11:55.171Z,75.36
2022-08-17T16:14:46.897Z,75.74
2022-08-17T16:17:40.310Z,75.68
2022-08-17T16:20:31.997Z,75.67
2022-08-17T16:23:21.888Z,75.47
2022-08-17T16:26:11.855Z,74.95
2022-08-17T16:29:03.900Z,75.71
2022-08-17T16:31:54.789Z,76.00
2022-08-17T16:34:45.387Z,75.84
2022-08-17T16:37:35.800Z,75.79
2022-08-17T16:40:28.880Z,76.11
2022-08-17T16:43:18.881Z,76.02
2022-08-17T16:46:08.644Z,75.65
2022-08-17T16:49:01.554Z,75.68
2022-08-17T16:51:51.828Z,75.44
2022-08-17T16:54:44.797Z,75.61
2022-08-17T16:57:35.371Z,75.04
2022-08-17T17:00:24.664Z,75.12
2022-08-17T17:03:19.399Z,75.47
2022-08-17T17:06:16.991Z,75.42
2022-08-17T17:09:12.762Z,74.88
2022-08-17T17:12:05.402Z,74.96
2022-08-17T17:15:00.593Z,74.56
2022-08-17T17:17:50.998Z,74.35
2022-08-17T17:20:55.396Z,73.75
2022-08-17T17:23:50.399Z,74.11
2022-08-17T17:26:42.416Z,73.68
2022-08-17T17:30:08.840Z,73.65
2022-08-17T17:33:05.885Z,73.16
2022-08-17T17:35:56.816Z,73.37
2022-08-17T17:38:50.933Z,72.93
2022-08-17T17:41:59.581Z,72.91
2022-08-17T17:45:14.161Z,72.72
2022-08-17T17:48:03.841Z,72.70
2022-08-17T17:51:11.404Z,72.34
2022-08-17T17:54:15.082Z,73.07
2022-08-17T17:57:12.891Z,73.07
2022-08-17T18:00:10.981Z,73.14
2022-08-17T18:03:26.986Z,73.27
2022-08-17T18:06:49.661Z,72.61
2022-08-17T18:10:01.032Z,72.63
2022-08-17T18:12:57.253Z,72.49
2022-08-17T18:15:52.574Z,72.30
2022-08-17T18:18:45.998Z,72.90
2022-08-17T18:21:41.197Z,72.37
2022-08-17T18:24:39.098Z,71.77
2022-08-17T18:27:57.292Z,72.05
2022-08-17T18:30:47.188Z,71.82
2022-08-17T18:33:40.138Z,71.65
2022-08-17T18:36:32.883Z,71.69
2022-08-17T18:39:28.808Z,71.67
2022-08-17T18:42:30.359Z,71.57
2022-08-17T18:45:42.152Z,71.54
2022-08-17T18:48:37.468Z,71.55
2022-08-17T18:51:40.606Z,71.91
2022-08-17T18:54:32.106Z,71.90
2022-08-17T18:57:34.255Z,71.77
2022-08-17T19:00:42.872Z,72.06
2022-08-17T19:03:32.906Z,72.24
2022-08-17T19:06:30.767Z,72.28
2022-08-17T19:09:33.971Z,72.49
2022-08-17T19:12:29.253Z,72.82
2022-08-17T19:15:25.187Z,72.91
2022-08-17T19:18:26.147Z,72.64
2022-08-17T19:21:37.928Z,73.09
2022-08-17T19:24:29.894Z,73.47
2022-08-17T19:27:41.764Z,73.31
2022-08-17T19:30:37.731Z,73.98
2022-08-17T19:33:32.728Z,73.71
2022-08-17T19:36:50.991Z,73.85
2022-08-17T19:39:52.415Z,74.54
2022-08-17T19:43:06.215Z,74.65
2022-08-17T19:46:21.271Z,74.64
2022-08-17T19:49:18.212Z,74.92
2022-08-17T19:52:39.008Z,74.54
2022-08-17T19:55:44.932Z,75.03
2022-08-17T19:59:22.678Z,74.65
2022-08-17T20:02:25.964Z,75.19
2022-08-17T20:06:00.881Z,75.55
2022-08-17T20:09:18.331Z,75.27
2022-08-17T20:12:13.510Z,75.71
2022-08-17T20:15:13.333Z,76.09
2022-08-17T20:18:07.633Z,75.86
2022-08-17T20:21:27.257Z,75.88
2022-08-17T20:24:25.363Z,75.76
2022-08-17T20:27:18.194Z,75.39
2022-08-17T20:30:35.820Z,75.82
2022-08-17T20:33:31.174Z,76.11
2022-08-17T20:36:24.021Z,75.57
2022-08-17T20:39:37.488Z,76.11
2022-08-17T20:42:28.444Z,76.50
2022-08-17T20:45:23.509Z,76.83
2022-08-17T20:48:36.982Z,76.86
2022-08-17T20:51:36.126Z,77.60
2022-08-17T20:54:56.587Z,76.82
2022-08-17T20:57:48.692Z,77.53
2022-08-17T21:00:47.088Z,77.78
2022-08-17T21:03:51.304Z,76.83
2022-08-17T21:07:19.749Z,77.22
2022-08-17T21:10:28.404Z,77.66
2022-08-17T21:13:18.030Z,77.70
2022-08-17T21:16:10.616Z,76.82
2022-08-17T21:19:07.533Z,76.96
2022-08-17T21:22:13.405Z,76.78
2022-08-17T21:25:21.331Z,77.05
2022-08-17T21:29:00.518Z,76.95
2022-08-17T21:32:06.675Z,77.01
2022-08-17T21:35:33.584Z,77.73
2022-08-17T21:38:38.127Z,77.50
2022-08-17T21:41:56.136Z,77.64
2022-08-17T21:44:51.395Z,77.75
2022-08-17T21:47:46.581Z,77.72
2022-08-17T21:50:36.981Z,77.58
2022-08-17T21:53:33.262Z,77.97
2022-08-17T21:56:31.758Z,77.54
2022-08-17T21:59:21.202Z,77.36
2022-08-17T22:02:32.808Z,77.41
2022-08-17T22:05:39.406Z,77.28
2022-08-17T22:08:29.083Z,77.30
2022-08-17T22:11:19.907Z,77.74
2022-08-17T22:14:19.452Z,77.22
2022-08-17T22:17:17.634Z,76.88
2022-08-17T22:20:17.306Z,76.61
2022-08-17T22:23:31.796Z,76.41
2022-08-17T22:26:26.809Z,76.85
2022-08-17T22:29:57.400Z,76.49
2022-08-17T22:32:50.686Z,76.53
2022-08-17T22:35:45.325Z,76.59
2022-08-17T22:38:36.053Z,76.87
2022-08-17T22:41:33.681Z,76.63
2022-08-17T22:44:33.202Z,76.44
2022-08-17T22:47:52.855Z,76.41
2022-08-17T22:50:42.678Z,76.80
2022-08-17T22:53:50.444Z,76.31
2022-08-17T22:57:24.098Z,76.59
2022-08-17T23:00:32.780Z,76.63
2022-08-17T23:03:24.512Z,76.30
2022-08-17T23:06:14.590Z,76.25
2022-08-17T23:09:07.195Z,76.48
2022-08-17T23:11:59.899Z,76.27
2022-08-17T23:14:52.730Z,76.20
2022-08-17T23:17:44.490Z,76.34
2022-08-17T23:20:40.899Z,76.08
2022-08-17T23:23:30.289Z,76.47
2022-08-17T23:26:22.327Z,76.31
2022-08-17T23:29:11.792Z,76.29
2022-08-17T23:32:02.846Z,76.01
2022-08-17T23:34:52.947Z,75.56
2022-08-17T23:37:42.805Z,74.94
2022-08-17T23:40:32.571Z,74.17
2022-08-17T23:43:25.584Z,74.70
2022-08-17T23:46:18.866Z,74.96
2022-08-17T23:49:08.974Z,74.86
2022-08-17T23:52:00.462Z,75.23
2022-08-17T23:54:51.092Z,74.95
2022-08-17T23:57:42.755Z,74.48
